createdAt,value
2023-01-12T00:02:10.640Z,98198.75
2023-01-12T00:04:37.603Z,98199.63
2023-01-12T00:07:12.934Z,98184.72
2023-01-12T00:09:39.415Z,98178.59
2023-01-12T00:12:08.111Z,98174.19
2023-01-12T00:14:35.309Z,98164.56
2023-01-12T00:17:05.702Z,98182.94
2023-01-12T00:19:33.336Z,98171.56
2023-01-12T00:22:07.340Z,98185.56
2023-01-12T00:24:38.947Z,98183.81
2023-01-12T00:27:07.750Z,98166.28
2023-01-12T00:29:38.012Z,98187.34
2023-01-12T00:32:11.298Z,98185.56
2023-01-12T00:34:39.884Z,98194.31
2023-01-12T00:37:07.066Z,98198.69
2023-01-12T00:39:40.452Z,98179.41
2023-01-12T00:42:26.167Z,98208.38
2023-01-12T00:45:10.913Z,98204.84
2023-01-12T00:47:37.475Z,98195.19
2023-01-12T00:50:04.408Z,98196.06
2023-01-12T00:52:31.857Z,98195.19
2023-01-12T00:54:59.710Z,98182.88
2023-01-12T00:57:26.967Z,98199.53
2023-01-12T00:59:58.248Z,98206.56
2023-01-12T01:02:25.838Z,98199.56
2023-01-12T01:04:52.473Z,98188.19
2023-01-12T01:07:21.607Z,98199.56
2023-01-12T01:09:48.876Z,98200.41
2023-01-12T01:12:15.563Z,98194.28
2023-01-12T01:14:53.930Z,98201.28
2023-01-12T01:17:20.519Z,98197.78
2023-01-12T01:19:48.402Z,98198.66
2023-01-12T01:22:15.000Z,98187.31
2023-01-12T01:24:42.026Z,98195.19
2023-01-12T01:27:08.586Z,98190.81
2023-01-12T01:29:38.633Z,98187.34
2023-01-12T01:32:05.955Z,98191.72
2023-01-12T01:34:32.712Z,98203.94
2023-01-12T01:37:02.095Z,98195.22
2023-01-12T01:39:28.663Z,98217.09
2023-01-12T01:41:55.405Z,98212.75
2023-01-12T01:44:32.765Z,98197.84
2023-01-12T01:47:09.455Z,98207.50
2023-01-12T01:49:49.503Z,98173.31
2023-01-12T01:52:23.360Z,98179.44
2023-01-12T01:54:59.311Z,98194.34
2023-01-12T01:57:33.355Z,98173.34
2023-01-12T02:00:01.150Z,98179.44
2023-01-12T02:02:28.004Z,98150.50
2023-01-12T02:04:57.155Z,98163.69
2023-01-12T02:07:23.764Z,98165.44
2023-01-12T02:09:50.323Z,98147.91
2023-01-12T02:12:35.788Z,98145.25
2023-01-12T02:15:21.103Z,98154.91
2023-01-12T02:18:14.691Z,98174.22
2023-01-12T02:20:57.024Z,98165.41
2023-01-12T02:23:48.550Z,98157.50
2023-01-12T02:26:40.406Z,98156.66
2023-01-12T02:29:33.446Z,98148.78
2023-01-12T02:32:35.265Z,98123.34
2023-01-12T02:35:13.948Z,98137.34
2023-01-12T02:38:34.088Z,98134.75
2023-01-12T02:41:03.314Z,98123.34
2023-01-12T02:43:32.772Z,98140.88
2023-01-12T02:46:21.654Z,98141.75
2023-01-12T02:48:57.514Z,98128.59
2023-01-12T02:51:34.902Z,98125.09
2023-01-12T02:54:14.620Z,98110.19
2023-01-12T02:56:45.509Z,98130.34
2023-01-12T02:59:33.932Z,98116.31
2023-01-12T03:02:04.564Z,98126.88
2023-01-12T03:04:32.708Z,98128.63
2023-01-12T03:06:59.189Z,98134.75
2023-01-12T03:09:34.380Z,98113.69
2023-01-12T03:12:06.189Z,98126.00
2023-01-12T03:14:37.366Z,98121.59
2023-01-12T03:17:10.207Z,98121.59
2023-01-12T03:19:36.869Z,98122.47
2023-01-12T03:22:11.642Z,98117.22
2023-01-12T03:24:43.527Z,98114.59
2023-01-12T03:27:16.055Z,98120.69
2023-01-12T03:29:57.043Z,98116.31
2023-01-12T03:32:24.345Z,98106.66
2023-01-12T03:34:51.442Z,98106.66
2023-01-12T03:37:50.589Z,98119.81
2023-01-12T03:40:37.042Z,98123.31
2023-01-12T03:43:40.480Z,98111.91
2023-01-12T03:46:36.577Z,98101.41
2023-01-12T03:49:29.585Z,98113.69
2023-01-12T03:52:00.175Z,98104.03
2023-01-12T03:54:28.568Z,98104.03
2023-01-12T03:56:56.277Z,98094.41
2023-01-12T03:59:23.881Z,98086.50
2023-01-12T04:01:51.620Z,98086.50
2023-01-12T04:04:18.420Z,98071.59
2023-01-12T04:06:44.945Z,98086.50
2023-01-12T04:09:11.497Z,98071.59
2023-01-12T04:11:56.234Z,98088.25
2023-01-12T04:14:22.804Z,98076.88
2023-01-12T04:16:49.367Z,98089.13
2023-01-12T04:19:16.061Z,98083.88
2023-01-12T04:22:01.085Z,98062.84
2023-01-12T04:24:27.689Z,98071.63
2023-01-12T04:26:54.230Z,98093.53
2023-01-12T04:29:20.826Z,98083.88
2023-01-12T04:31:47.410Z,98091.75
2023-01-12T04:34:13.950Z,98078.59
2023-01-12T04:36:42.975Z,98075.09
2023-01-12T04:39:09.693Z,98090.88
2023-01-12T04:41:36.406Z,98075.09
2023-01-12T04:44:03.100Z,98054.06
2023-01-12T04:46:29.651Z,98083.00
2023-01-12T04:48:56.210Z,98070.72
2023-01-12T04:51:22.813Z,98059.31
2023-01-12T04:53:49.386Z,98063.69
2023-01-12T04:56:15.969Z,98047.94
2023-01-12T04:58:42.516Z,98040.03
2023-01-12T05:01:14.988Z,98033.00
2023-01-12T05:03:42.263Z,98039.13
2023-01-12T05:06:09.092Z,98038.25
2023-01-12T05:08:54.765Z,98033.88
2023-01-12T05:11:24.884Z,98032.97
2023-01-12T05:13:51.463Z,98032.97
2023-01-12T05:16:18.618Z,98026.84
2023-01-12T05:18:46.012Z,98010.19
2023-01-12T05:21:13.882Z,98031.22
2023-01-12T05:23:40.512Z,98022.47
2023-01-12T05:26:10.535Z,98015.44
2023-01-12T05:28:37.085Z,98029.47
2023-01-12T05:31:14.316Z,98008.41
2023-01-12T05:33:42.316Z,98000.50
2023-01-12T05:36:11.910Z,98002.25
2023-01-12T05:38:38.617Z,97989.97
2023-01-12T05:41:10.253Z,97985.59
2023-01-12T05:43:52.109Z,97998.75
2023-01-12T05:46:40.219Z,97980.34
2023-01-12T05:49:06.812Z,97985.59
2023-01-12T05:51:33.403Z,97982.97
2023-01-12T05:53:59.922Z,97989.13
2023-01-12T05:56:27.774Z,97975.09
2023-01-12T05:58:59.837Z,97983.88
2023-01-12T06:01:28.621Z,97969.81
2023-01-12T06:03:58.701Z,97977.69
2023-01-12T06:06:27.837Z,97977.72
2023-01-12T06:08:54.867Z,97967.19
2023-01-12T06:11:40.200Z,97953.97
2023-01-12T06:14:08.291Z,97924.16
2023-01-12T06:16:37.492Z,97962.75
2023-01-12T06:19:04.427Z,97951.38
2023-01-12T06:21:32.687Z,97957.53
2023-01-12T06:24:02.021Z,97966.31
2023-01-12T06:26:28.537Z,97964.53
2023-01-12T06:28:55.224Z,97954.88
2023-01-12T06:31:21.764Z,97948.69
2023-01-12T06:33:48.379Z,97918.00
2023-01-12T06:36:14.941Z,97939.88
2023-01-12T06:38:43.312Z,97934.66
2023-01-12T06:41:30.591Z,97941.69
2023-01-12T06:43:57.753Z,97942.56
2023-01-12T06:46:25.832Z,97918.00
2023-01-12T06:48:52.412Z,97929.44
2023-01-12T06:51:19.019Z,97925.91
2023-01-12T06:53:45.532Z,97908.38
2023-01-12T06:56:12.088Z,97901.28
2023-01-12T06:58:38.631Z,97903.94
2023-01-12T07:01:05.465Z,97900.41
2023-01-12T07:03:32.044Z,97879.34
2023-01-12T07:05:59.413Z,97896.88
2023-01-12T07:08:26.230Z,97877.56
2023-01-12T07:10:52.900Z,97896.84
2023-01-12T07:13:19.539Z,97879.28
2023-01-12T07:15:46.077Z,97902.09
2023-01-12T07:18:12.696Z,97882.75
2023-01-12T07:20:39.281Z,97868.75
2023-01-12T07:23:05.905Z,97854.69
2023-01-12T07:25:32.434Z,97858.16
2023-01-12T07:27:59.030Z,97847.63
2023-01-12T07:30:26.454Z,97838.84
2023-01-12T07:32:53.013Z,97816.94
2023-01-12T07:35:19.942Z,97833.63
2023-01-12T07:37:56.381Z,97820.47
2023-01-12T07:40:22.969Z,97812.53
2023-01-12T07:42:49.575Z,97820.44
2023-01-12T07:45:16.246Z,97818.66
2023-01-12T07:47:42.757Z,97803.75
2023-01-12T07:50:12.210Z,97801.09
2023-01-12T07:52:41.375Z,97794.06
2023-01-12T07:55:08.252Z,97764.19
2023-01-12T07:57:36.587Z,97786.16
2023-01-12T08:00:06.681Z,97801.06
2023-01-12T08:02:33.292Z,97775.63
2023-01-12T08:04:59.847Z,97790.53
2023-01-12T08:07:26.878Z,97780.91
2023-01-12T08:09:53.406Z,97781.81
2023-01-12T08:12:20.040Z,97788.84
2023-01-12T08:14:46.665Z,97773.03
2023-01-12T08:17:21.679Z,97769.53
2023-01-12T08:19:56.673Z,97745.81
2023-01-12T08:22:29.064Z,97761.59
2023-01-12T08:25:06.951Z,97753.66
2023-01-12T08:27:36.275Z,97747.53
2023-01-12T08:30:04.390Z,97742.28
2023-01-12T08:32:32.645Z,97722.06
2023-01-12T08:35:01.734Z,97722.94
2023-01-12T08:37:29.668Z,97709.78
2023-01-12T08:39:56.270Z,97717.66
2023-01-12T08:42:26.434Z,97722.06
2023-01-12T08:44:54.803Z,97699.25
2023-01-12T08:47:27.084Z,97693.06
2023-01-12T08:49:59.305Z,97721.19
2023-01-12T08:52:29.387Z,97703.63
2023-01-12T08:54:56.455Z,97717.72
2023-01-12T08:57:23.031Z,97709.81
2023-01-12T08:59:49.719Z,97714.28
2023-01-12T09:02:16.649Z,97723.94
2023-01-12T09:04:43.430Z,97718.69
2023-01-12T09:07:11.207Z,97721.31
2023-01-12T09:09:38.291Z,97713.41
2023-01-12T09:12:05.119Z,97722.22
2023-01-12T09:14:38.370Z,97719.59
2023-01-12T09:17:06.824Z,97720.44
2023-01-12T09:19:33.477Z,97732.75
2023-01-12T09:22:00.003Z,97759.06
2023-01-12T09:24:26.791Z,97730.97
2023-01-12T09:26:53.346Z,97769.56
2023-01-12T09:29:19.888Z,97756.41
2023-01-12T09:31:46.814Z,97773.09
2023-01-12T09:34:13.545Z,97759.06
2023-01-12T09:36:41.041Z,97725.66
2023-01-12T09:39:10.294Z,97762.53
2023-01-12T09:42:02.921Z,97775.72
2023-01-12T09:44:56.903Z,97752.91
2023-01-12T09:47:23.445Z,97761.72
2023-01-12T09:50:16.355Z,97766.94
2023-01-12T09:52:49.039Z,97753.78
2023-01-12T09:55:21.493Z,97758.19
2023-01-12T09:58:12.875Z,97740.63
2023-01-12T10:00:39.454Z,97767.78
2023-01-12T10:03:25.971Z,97747.53
2023-01-12T10:05:55.191Z,97758.94
2023-01-12T10:08:33.898Z,97765.09
2023-01-12T10:11:20.452Z,97774.72
2023-01-12T10:14:37.741Z,97756.13
2023-01-12T10:17:16.918Z,97755.28
2023-01-12T10:20:08.370Z,97772.00
2023-01-12T10:22:40.309Z,97762.38
2023-01-12T10:25:16.622Z,97765.91
2023-01-12T10:27:45.819Z,97737.81
2023-01-12T10:30:17.066Z,97772.09
2023-01-12T10:32:43.695Z,97751.88
2023-01-12T10:35:19.556Z,97734.31
2023-01-12T10:37:52.613Z,97768.59
2023-01-12T10:40:25.641Z,97731.72
2023-01-12T10:43:20.469Z,97743.94
2023-01-12T10:46:06.306Z,97764.94
2023-01-12T10:48:33.340Z,97767.50
2023-01-12T10:51:02.443Z,97756.94
2023-01-12T10:53:31.430Z,97766.53
2023-01-12T10:55:58.929Z,97746.34
2023-01-12T10:58:35.109Z,97749.00
2023-01-12T11:01:02.576Z,97755.22
2023-01-12T11:03:32.636Z,97724.56
2023-01-12T11:06:34.879Z,97724.56
2023-01-12T11:09:27.828Z,97758.75
2023-01-12T11:11:56.602Z,97713.06
2023-01-12T11:14:39.925Z,97749.84
2023-01-12T11:17:24.741Z,97728.72
2023-01-12T11:19:53.396Z,97738.41
2023-01-12T11:22:27.377Z,97746.31
2023-01-12T11:25:01.123Z,97737.50
2023-01-12T11:27:41.993Z,97756.84
2023-01-12T11:30:27.835Z,97760.34
2023-01-12T11:33:15.660Z,97760.28
2023-01-12T11:35:53.807Z,97760.22
2023-01-12T11:38:41.107Z,97743.50
2023-01-12T11:41:30.034Z,97763.59
2023-01-12T11:44:19.359Z,97762.69
2023-01-12T11:46:51.144Z,97760.94
2023-01-12T11:49:39.405Z,97768.84
2023-01-12T11:52:10.046Z,97769.72
2023-01-12T11:54:38.502Z,97768.88
2023-01-12T11:57:26.141Z,97750.44
2023-01-12T12:00:01.715Z,97760.97
2023-01-12T12:02:49.881Z,97760.09
2023-01-12T12:05:19.465Z,97766.22
2023-01-12T12:08:13.991Z,97751.28
2023-01-12T12:10:59.309Z,97747.75
2023-01-12T12:13:34.749Z,97744.22
2023-01-12T12:16:25.813Z,97737.97
2023-01-12T12:19:26.148Z,97737.16
2023-01-12T12:22:23.842Z,97730.13
2023-01-12T12:25:10.403Z,97732.72
2023-01-12T12:27:39.659Z,97734.41
2023-01-12T12:30:43.803Z,97722.16
2023-01-12T12:33:26.782Z,97730.13
2023-01-12T12:36:03.018Z,97726.59
2023-01-12T12:38:48.033Z,97722.22
2023-01-12T12:41:51.616Z,97720.47
2023-01-12T12:44:48.542Z,97714.28
2023-01-12T12:47:33.490Z,97701.88
2023-01-12T12:50:02.548Z,97716.84
2023-01-12T12:52:37.402Z,97704.56
2023-01-12T12:55:05.250Z,97724.78
2023-01-12T12:57:31.871Z,97698.44
2023-01-12T12:59:59.987Z,97710.69
2023-01-12T13:02:55.086Z,97703.63
2023-01-12T13:05:44.704Z,97703.56
2023-01-12T13:08:24.286Z,97695.59
2023-01-12T13:10:57.647Z,97710.53
2023-01-12T13:13:28.493Z,97714.94
2023-01-12T13:16:10.096Z,97708.75
2023-01-12T13:18:51.470Z,97717.56
2023-01-12T13:21:26.843Z,97710.53
2023-01-12T13:23:55.001Z,97713.22
2023-01-12T13:26:33.562Z,97713.22
2023-01-12T13:29:28.025Z,97708.88
2023-01-12T13:32:19.094Z,97712.41
2023-01-12T13:34:48.798Z,97706.28
2023-01-12T13:37:47.615Z,97723.00
2023-01-12T13:40:31.392Z,97723.00
2023-01-12T13:43:16.706Z,97725.63
2023-01-12T13:45:56.901Z,97723.81
2023-01-12T13:48:26.031Z,97726.38
2023-01-12T13:50:57.994Z,97730.78
2023-01-12T13:53:28.830Z,97727.31
2023-01-12T13:56:01.295Z,97721.19
2023-01-12T13:58:36.721Z,97736.16
2023-01-12T14:01:16.456Z,97725.59
2023-01-12T14:04:07.098Z,97735.22
2023-01-12T14:06:55.142Z,97738.75
2023-01-12T14:09:30.647Z,97736.13
2023-01-12T14:12:03.262Z,97737.91
2023-01-12T14:15:15.863Z,97732.59
2023-01-12T14:17:57.862Z,97754.53
2023-01-12T14:20:34.177Z,97714.94
2023-01-12T14:23:18.864Z,97746.59
2023-01-12T14:25:47.041Z,97750.09
2023-01-12T14:28:18.835Z,97759.81
2023-01-12T14:30:49.175Z,97751.84
2023-01-12T14:33:18.733Z,97755.38
2023-01-12T14:35:49.055Z,97751.81
2023-01-12T14:38:18.918Z,97760.59
2023-01-12T14:40:53.735Z,97750.03
2023-01-12T14:43:39.057Z,97753.56
2023-01-12T14:46:24.969Z,97752.69
2023-01-12T14:49:01.352Z,97743.91
2023-01-12T14:51:40.890Z,97736.00
2023-01-12T14:54:07.364Z,97707.00
2023-01-12T14:56:42.800Z,97748.31
2023-01-12T14:59:22.741Z,97750.97
2023-01-12T15:01:50.843Z,97753.63
2023-01-12T15:04:26.282Z,97749.25
2023-01-12T15:07:05.513Z,97753.63
2023-01-12T15:09:34.900Z,97754.50
2023-01-12T15:12:26.370Z,97740.44
2023-01-12T15:14:52.874Z,97749.25
2023-01-12T15:17:37.706Z,97758.00
2023-01-12T15:20:23.009Z,97751.03
2023-01-12T15:23:08.434Z,97736.97
2023-01-12T15:25:37.719Z,97759.81
2023-01-12T15:28:06.717Z,97744.03
2023-01-12T15:30:37.407Z,97758.06
2023-01-12T15:33:05.029Z,97754.53
2023-01-12T15:35:32.569Z,97758.91
2023-01-12T15:37:59.585Z,97748.41
2023-01-12T15:40:27.642Z,97754.56
2023-01-12T15:42:54.517Z,97743.94
2023-01-12T15:45:29.852Z,97753.66
2023-01-12T15:47:56.612Z,97764.25
2023-01-12T15:50:29.277Z,97760.69
2023-01-12T15:52:58.261Z,97758.91
2023-01-12T15:55:25.215Z,97766.81
2023-01-12T15:57:52.250Z,97761.59
2023-01-12T16:00:21.820Z,97771.22
2023-01-12T16:02:50.478Z,97770.28
2023-01-12T16:05:19.409Z,97757.09
2023-01-12T16:07:48.362Z,97772.09
2023-01-12T16:10:16.437Z,97764.13
2023-01-12T16:12:44.225Z,97781.69
2023-01-12T16:15:22.079Z,97770.28
2023-01-12T16:17:49.779Z,97775.56
2023-01-12T16:20:19.106Z,97781.66
2023-01-12T16:22:46.790Z,97771.16
2023-01-12T16:25:14.491Z,97777.22
2023-01-12T16:27:41.395Z,97771.09
2023-01-12T16:30:12.245Z,97772.00
2023-01-12T16:32:38.934Z,97777.22
2023-01-12T16:35:05.603Z,97757.88
2023-01-12T16:37:33.404Z,97765.78
2023-01-12T16:40:00.752Z,97763.13
2023-01-12T16:42:27.807Z,97765.78
2023-01-12T16:44:54.411Z,97761.34
2023-01-12T16:47:21.131Z,97757.84
2023-01-12T16:49:49.792Z,97754.31
2023-01-12T16:52:18.340Z,97751.69
2023-01-12T16:54:45.440Z,97757.84
2023-01-12T16:57:14.142Z,97763.88
2023-01-12T16:59:41.404Z,97745.41
2023-01-12T17:02:19.524Z,97758.59
2023-01-12T17:04:48.507Z,97764.81
2023-01-12T17:07:15.233Z,97756.00
2023-01-12T17:09:45.575Z,97764.75
2023-01-12T17:12:12.421Z,97761.25
2023-01-12T17:14:39.178Z,97765.66
2023-01-12T17:17:08.372Z,97761.25
2023-01-12T17:19:37.924Z,97754.22
2023-01-12T17:22:06.758Z,97759.50
2023-01-12T17:24:36.004Z,97756.00
2023-01-12T17:27:03.378Z,97748.13
2023-01-12T17:29:30.083Z,97756.03
2023-01-12T17:32:03.779Z,97738.44
2023-01-12T17:34:34.328Z,97751.56
2023-01-12T17:37:04.128Z,97747.13
2023-01-12T17:39:34.482Z,97758.56
2023-01-12T17:42:19.893Z,97759.41
2023-01-12T17:44:46.449Z,97747.94
2023-01-12T17:47:13.100Z,97736.47
2023-01-12T17:49:39.719Z,97745.28
2023-01-12T17:52:06.439Z,97743.59
2023-01-12T17:54:33.479Z,97745.41
2023-01-12T17:57:00.242Z,97730.44
2023-01-12T17:59:26.968Z,97737.44
2023-01-12T18:01:55.366Z,97715.50
2023-01-12T18:04:22.174Z,97730.47
2023-01-12T18:06:48.950Z,97715.47
2023-01-12T18:09:18.760Z,97733.09
2023-01-12T18:11:45.397Z,97736.63
2023-01-12T18:14:12.355Z,97728.75
2023-01-12T18:16:38.992Z,97734.84
2023-01-12T18:19:07.336Z,97726.94
2023-01-12T18:21:34.832Z,97727.84
2023-01-12T18:24:02.104Z,97733.09
2023-01-12T18:26:35.975Z,97735.75
2023-01-12T18:29:05.133Z,97733.97
2023-01-12T18:31:33.653Z,97718.16
2023-01-12T18:34:10.204Z,97737.50
2023-01-12T18:36:39.068Z,97728.63
2023-01-12T18:39:10.329Z,97719.03
2023-01-12T18:41:55.959Z,97709.34
2023-01-12T18:44:23.739Z,97719.91
2023-01-12T18:47:08.740Z,97708.47
2023-01-12T18:49:36.548Z,97706.66
2023-01-12T18:52:24.619Z,97706.72
2023-01-12T18:54:55.278Z,97703.19
2023-01-12T18:57:28.848Z,97701.44
2023-01-12T19:00:17.007Z,97706.72
2023-01-12T19:02:44.343Z,97694.38
2023-01-12T19:05:24.256Z,97664.44
2023-01-12T19:08:01.594Z,97687.38
2023-01-12T19:10:29.094Z,97682.97
2023-01-12T19:13:14.253Z,97667.06
2023-01-12T19:16:00.189Z,97685.53
2023-01-12T19:18:27.696Z,97688.22
2023-01-12T19:21:12.834Z,97655.63
2023-01-12T19:24:01.281Z,97673.25
2023-01-12T19:26:49.644Z,97666.22
2023-01-12T19:29:16.400Z,97668.03
2023-01-12T19:31:43.074Z,97657.47
2023-01-12T19:34:09.728Z,97667.19
2023-01-12T19:36:36.412Z,97666.25
2023-01-12T19:39:10.508Z,97671.53
2023-01-12T19:41:59.094Z,97657.47
2023-01-12T19:44:25.638Z,97651.31
2023-01-12T19:46:52.185Z,97676.81
2023-01-12T19:49:18.789Z,97660.09
2023-01-12T19:51:53.129Z,97667.13
2023-01-12T19:54:21.085Z,97651.31
2023-01-12T19:56:47.658Z,97677.69
2023-01-12T19:59:14.235Z,97658.38
2023-01-12T20:01:40.881Z,97658.38
2023-01-12T20:04:07.599Z,97660.09
2023-01-12T20:06:37.440Z,97644.31
2023-01-12T20:09:07.030Z,97671.53
2023-01-12T20:11:33.636Z,97658.34
2023-01-12T20:14:00.165Z,97631.09
2023-01-12T20:16:26.918Z,97653.94
2023-01-12T20:18:57.395Z,97648.66
2023-01-12T20:21:24.251Z,97644.28
2023-01-12T20:23:50.838Z,97664.50
2023-01-12T20:26:17.423Z,97658.34
2023-01-12T20:28:44.005Z,97657.47
2023-01-12T20:31:13.290Z,97654.84
2023-01-12T20:33:40.551Z,97645.19
2023-01-12T20:36:15.582Z,97646.94
2023-01-12T20:38:43.335Z,97668.91
2023-01-12T20:41:10.550Z,97669.78
2023-01-12T20:43:37.064Z,97659.22
2023-01-12T20:46:08.081Z,97645.16
2023-01-12T20:48:34.672Z,97651.38
2023-01-12T20:51:03.043Z,97645.19
2023-01-12T20:53:31.569Z,97651.34
2023-01-12T20:55:58.437Z,97646.13
2023-01-12T20:58:28.807Z,97654.88
2023-01-12T21:00:55.559Z,97639.03
2023-01-12T21:03:22.956Z,97654.88
2023-01-12T21:05:49.846Z,97637.28
2023-01-12T21:08:18.080Z,97645.19
2023-01-12T21:10:52.739Z,97642.59
2023-01-12T21:13:20.696Z,97636.50
2023-01-12T21:15:47.703Z,97648.78
2023-01-12T21:18:14.302Z,97659.38
2023-01-12T21:20:42.798Z,97640.06
2023-01-12T21:23:09.991Z,97650.59
2023-01-12T21:25:43.311Z,97642.66
2023-01-12T21:28:10.629Z,97649.69
2023-01-12T21:30:38.555Z,97647.03
2023-01-12T21:33:05.281Z,97653.16
2023-01-12T21:35:31.971Z,97662.88
2023-01-12T21:37:59.241Z,97641.72
2023-01-12T21:40:29.183Z,97658.44
2023-01-12T21:43:12.310Z,97667.28
2023-01-12T21:45:42.769Z,97669.03
2023-01-12T21:48:10.918Z,97654.13
2023-01-12T21:50:38.542Z,97670.81
2023-01-12T21:53:07.284Z,97643.56
2023-01-12T21:55:34.564Z,97647.94
2023-01-12T21:58:04.366Z,97661.13
2023-01-12T22:00:31.484Z,97677.84
2023-01-12T22:02:58.283Z,97668.16
2023-01-12T22:05:25.686Z,97670.81
2023-01-12T22:07:54.809Z,97674.34
2023-01-12T22:10:30.340Z,97655.88
2023-01-12T22:12:59.899Z,97657.63
2023-01-12T22:15:28.233Z,97661.97
2023-01-12T22:17:55.551Z,97661.09
2023-01-12T22:20:24.214Z,97645.28
2023-01-12T22:22:51.452Z,97653.25
2023-01-12T22:25:18.668Z,97649.69
2023-01-12T22:27:45.545Z,97640.06
2023-01-12T22:30:15.588Z,97636.56
2023-01-12T22:32:42.856Z,97616.34
2023-01-12T22:35:10.511Z,97626.00
2023-01-12T22:37:38.378Z,97625.16
2023-01-12T22:40:08.043Z,97607.56
2023-01-12T22:42:53.074Z,97619.91
2023-01-12T22:45:19.929Z,97613.78
2023-01-12T22:47:54.356Z,97610.25
2023-01-12T22:50:21.713Z,97604.97
2023-01-12T22:52:52.603Z,97611.09
2023-01-12T22:55:20.307Z,97606.69
2023-01-12T22:57:46.989Z,97599.66
2023-01-12T23:00:14.533Z,97589.97
2023-01-12T23:02:59.702Z,97587.34
2023-01-12T23:05:32.729Z,97591.75
2023-01-12T23:07:59.559Z,97597.88
2023-01-12T23:10:26.501Z,97588.22
2023-01-12T23:13:11.696Z,97578.53
2023-01-12T23:15:39.219Z,97598.81
2023-01-12T23:18:06.884Z,97576.84
2023-01-12T23:20:35.836Z,97578.66
2023-01-12T23:23:06.712Z,97562.81
2023-01-12T23:25:34.814Z,97588.34
2023-01-12T23:28:01.700Z,97589.19
2023-01-12T23:30:32.473Z,97595.38
2023-01-12T23:33:05.984Z,97594.50
2023-01-12T23:35:41.437Z,97578.66
2023-01-12T23:38:14.981Z,97581.31
2023-01-12T23:40:41.629Z,97589.22
2023-01-12T23:43:08.207Z,97592.72
2023-01-12T23:45:35.332Z,97578.66
2023-01-12T23:48:02.048Z,97598.84
2023-01-12T23:50:28.716Z,97587.44
2023-01-12T23:52:55.715Z,97598.84
2023-01-12T23:55:27.048Z,97594.47
2023-01-12T23:57:53.623Z,97586.59
